地図

経路データ

SID SEASON NUMBER BASIN SUBBASIN NAME ISO_TIME NATURE LAT LON WMO_WIND WMO_PRES WMO_AGENCY TRACK_TYPE DIST2LAND LANDFALL IFLAG USA_AGENCY USA_ATCF_ID USA_LAT USA_LON USA_RECORD USA_STATUS USA_WIND USA_PRES USA_SSHS USA_R34_NE USA_R34_SE USA_R34_SW USA_R34_NW USA_R50_NE USA_R50_SE USA_R50_SW USA_R50_NW USA_R64_NE USA_R64_SE USA_R64_SW USA_R64_NW USA_POCI USA_ROCI USA_RMW USA_EYE TOKYO_LAT TOKYO_LON TOKYO_GRADE TOKYO_WIND TOKYO_PRES TOKYO_R50_DIR TOKYO_R50_LONG TOKYO_R50_SHORT TOKYO_R30_DIR TOKYO_R30_LONG TOKYO_R30_SHORT TOKYO_LAND CMA_LAT CMA_LON CMA_CAT CMA_WIND CMA_PRES HKO_LAT HKO_LON HKO_CAT HKO_WIND HKO_PRES NEWDELHI_LAT NEWDELHI_LON NEWDELHI_GRADE NEWDELHI_WIND NEWDELHI_PRES NEWDELHI_CI NEWDELHI_DP NEWDELHI_POCI REUNION_LAT REUNION_LON REUNION_TYPE REUNION_WIND REUNION_PRES REUNION_TNUM REUNION_CI REUNION_RMW REUNION_R34_NE REUNION_R34_SE REUNION_R34_SW REUNION_R34_NW REUNION_R50_NE REUNION_R50_SE REUNION_R50_SW REUNION_R50_NW REUNION_R64_NE REUNION_R64_SE REUNION_R64_SW REUNION_R64_NW BOM_LAT BOM_LON BOM_TYPE BOM_WIND BOM_PRES BOM_TNUM BOM_CI BOM_RMW BOM_R34_NE BOM_R34_SE BOM_R34_SW BOM_R34_NW BOM_R50_NE BOM_R50_SE BOM_R50_SW BOM_R50_NW BOM_R64_NE BOM_R64_SE BOM_R64_SW BOM_R64_NW BOM_ROCI BOM_POCI BOM_EYE BOM_POS_METHOD BOM_PRES_METHOD NADI_LAT NADI_LON NADI_CAT NADI_WIND NADI_PRES WELLINGTON_LAT WELLINGTON_LON WELLINGTON_WIND WELLINGTON_PRES DS824_LAT DS824_LON DS824_STAGE DS824_WIND DS824_PRES TD9636_LAT TD9636_LON TD9636_STAGE TD9636_WIND TD9636_PRES TD9635_LAT TD9635_LON TD9635_WIND TD9635_PRES TD9635_ROCI NEUMANN_LAT NEUMANN_LON NEUMANN_CLASS NEUMANN_WIND NEUMANN_PRES MLC_LAT MLC_LON MLC_CLASS MLC_WIND MLC_PRES USA_GUST BOM_GUST BOM_GUST_PER REUNION_GUST REUNION_GUST_PER USA_SEAHGT USA_SEARAD_NE USA_SEARAD_SE USA_SEARAD_SW USA_SEARAD_NW STORM_SPEED STORM_DIR
1987009S08095 1987 4 SI WA NOT_NAMED 1987-01-09 06:00:00 TS -7.80000 94.7000 main 827 827 O_________O_O_ jtwc_sh SH071987 -7.80000 94.7000 25 -1 -7.80000 94.7000 1 25 -7.80000 94.7000 TC 25 1 0
1987009S08095 1987 4 SI WA NOT_NAMED 1987-01-09 09:00:00 TS -7.86224 94.7261 main 836 830 P_________P_P_ SH071987 -7.86752 94.7325 27 -1 -7.85167 94.7133 1 27 -7.86752 94.7325 TC 27 1 137
1987009S08095 1987 4 SI WA NOT_NAMED 1987-01-09 12:00:00 TS -7.90000 94.8000 main 830 818 O_________O_O_ jtwc_sh SH071987 -7.90000 94.8000 30 -1 -7.90000 94.8000 1 30 -7.90000 94.8000 TC 30 2 100
1987009S08095 1987 4 SI WA NOT_NAMED 1987-01-09 15:00:00 TS -7.90490 94.9647 main 818 806 P_________P_P_ SH071987 -7.88493 94.9401 32 -1 -7.94484 95.0139 1 32 -7.88493 94.9401 TC 32 4 94
1987009S08095 1987 4 SI WA NOT_NAMED 1987-01-09 18:00:00 TS -7.93300 95.2436 main 806 795 O_________P_O_ jtwc_sh SH071987 -7.90000 95.2000 35 0 -7.99901 95.3309 1 35 -7.90000 95.2000 TC 35 7 102
1987009S08095 1987 4 SI WA NOT_NAMED 1987-01-09 21:00:00 TS -8.04459 95.6441 main 795 790 P_________P_P_ SH071987 -8.02755 95.6125 37 0 -8.07866 95.7074 1 37 -8.02755 95.6125 TC 37 9 107
1987009S08095 1987 4 SI WA NOT_NAMED 1987-01-10 00:00:00 TS -8.20000 96.1000 main 790 781 O_________O_O_ jtwc_sh SH071987 -8.20000 96.1000 40 0 -8.20000 96.1000 2 40 -8.20000 96.1000 TC 40 9 108
1987009S08095 1987 4 SI WA NOT_NAMED 1987-01-10 03:00:00 TS -8.33620 96.5438 main 783 779 P_________P_P_ SH071987 -8.32753 96.5801 42 0 -8.35354 96.4712 2 42 -8.32753 96.5801 TC 42 9 111
1987009S08095 1987 4 SI WA NOT_NAMED 1987-01-10 06:00:00 TS -8.51756 96.9483 main 781 771 O_________P_O_ jtwc_sh SH071987 -8.50000 97.0000 45 0 -8.55268 96.8449 2 45 -8.50000 97.0000 TC 45 8 122
1987009S08095 1987 4 SI WA NOT_NAMED 1987-01-10 09:00:00 TS -8.77510 97.2571 main 771 771 P_________P_P_ SH071987 -8.76242 97.2876 47 0 -8.80045 97.1962 2 47 -8.76242 97.2876 TC 47 8 137
1987009S08095 1987 4 SI WA NOT_NAMED 1987-01-10 12:00:00 TS -9.10000 97.5000 main 779 779 O_________O_O_ jtwc_sh SH071987 -9.10000 97.5000 50 0 -9.10000 97.5000 2 50 -9.10000 97.5000 TC 50 8 147
1987009S08095 1987 4 SI WA NOT_NAMED 1987-01-10 15:00:00 TS -9.48127 97.7171 main 798 791 P_________P_P_ SH071987 -9.48499 97.7150 52 0 -9.47384 97.7213 2 50 -9.48499 97.7150 TC 52 9 154
1987009S08095 1987 4 SI WA NOT_NAMED 1987-01-10 18:00:00 TS -9.89741 97.8984 main 818 818 O_________P_O_ jtwc_sh SH071987 -9.90000 97.9000 55 0 -9.89223 97.8951 2 50 -9.90000 97.9000 TC 55 9 159
1987009S08095 1987 4 SI WA NOT_NAMED 1987-01-10 21:00:00 TS -10.3198 98.0488 main 845 838 P_________P_P_ SH071987 -10.3225 98.0501 52 0 -10.3145 98.0464 2 50 -10.3225 98.0501 TC 52 9 160
1987009S08095 1987 4 SI WA NOT_NAMED 1987-01-11 00:00:00 TS -10.7000 98.2000 main 866 866 O_________O_O_ jtwc_sh SH071987 -10.7000 98.2000 50 0 -10.7000 98.2000 2 50 -10.7000 98.2000 TC 50 8 153
1987009S08095 1987 4 SI WA NOT_NAMED 1987-01-11 03:00:00 TS -10.9821 98.3994 main 879 876 P_________P_P_ SH071987 -10.9725 98.3926 47 0 -11.0013 98.4131 2 48 -10.9725 98.3926 TC 47 7 142
1987009S08095 1987 4 SI WA NOT_NAMED 1987-01-11 06:00:00 TS -11.2200 98.6100 main 876 871 O_________P_O_ jtwc_sh SH071987 -11.2000 98.6000 45 0 -11.2601 98.6300 2 47 -11.2000 98.6000 TC 45 6 140
1987009S08095 1987 4 SI WA NOT_NAMED 1987-01-11 09:00:00 TS -11.4679 98.8206 main 878 867 P_________P_P_ SH071987 -11.4575 98.8150 45 0 -11.4888 98.8319 2 46 -11.4575 98.8150 TC 45 6 142
1987009S08095 1987 4 SI WA NOT_NAMED 1987-01-11 12:00:00 TS -11.7000 99.0000 main 874 873 O_________O_O_ jtwc_sh SH071987 -11.7000 99.0000 45 0 -11.7000 99.0000 2 45 -11.7000 99.0000 TC 45 5 147
1987009S08095 1987 4 SI WA NOT_NAMED 1987-01-11 15:00:00 TS -11.9192 99.1214 main 880 879 P_________P_P_ SH071987 -11.9075 99.1225 45 0 -11.9427 99.1192 2 45 -11.9075 99.1225 TC 45 5 155
1987009S08095 1987 4 SI WA NOT_NAMED 1987-01-11 18:00:00 TS -12.1225 99.2009 main 886 886 O_________P_O_ jtwc_sh SH071987 -12.1000 99.2000 45 0 -12.1674 99.2026 2 45 -12.1000 99.2000 TC 45 4 163
1987009S08095 1987 4 SI WA NOT_NAMED 1987-01-11 21:00:00 TS -12.3345 99.2583 main 893 893 P_________P_P_ SH071987 -12.3225 99.2575 45 0 -12.3584 99.2598 2 45 -12.3225 99.2575 TC 45 4 166
1987009S08095 1987 4 SI WA NOT_NAMED 1987-01-12 00:00:00 TS -12.5000 99.3000 main 908 908 O_________O_O_ jtwc_sh SH071987 -12.5000 99.3000 45 0 -12.5000 99.3000 2 45 -12.5000 99.3000 TC 45 3 160
1987009S08095 1987 4 SI WA NOT_NAMED 1987-01-12 03:00:00 TS -12.5784 99.3515 main 909 909 P_________P_P_ SH071987 -12.5800 99.3575 45 0 -12.5753 99.3395 2 45 -12.5800 99.3575 TC 45 1 140
1987009S08095 1987 4 SI WA NOT_NAMED 1987-01-12 06:00:00 TS -12.6008 99.3884 main 909 909 O_________P_O_ jtwc_sh SH071987 -12.6000 99.4000 45 0 -12.6025 99.3651 2 45 -12.6000 99.4000 TC 45 1 125
1987009S08095 1987 4 SI WA NOT_NAMED 1987-01-12 09:00:00 TS -12.6011 99.3994 main 909 909 P_________P_P_ SH071987 -12.6000 99.4075 45 0 -12.6034 99.3832 2 45 -12.6000 99.4075 TC 45 0 0
1987009S08095 1987 4 SI WA NOT_NAMED 1987-01-12 12:00:00 TS -12.6000 99.4000 main 909 909 O_________O_O_ jtwc_sh SH071987 -12.6000 99.4000 45 0 -12.6000 99.4000 2 45 -12.6000 99.4000 TC 45 0 154
1987009S08095 1987 4 SI WA NOT_NAMED 1987-01-12 15:00:00 TS -12.6366 99.4019 main 909 909 P_________P_P_ SH071987 -12.6500 99.3925 42 0 -12.6097 99.4206 2 43 -12.6500 99.3925 TC 42 1 168
1987009S08095 1987 4 SI WA NOT_NAMED 1987-01-12 18:00:00 TS -12.6775 99.4150 main 917 917 O_________P_O_ jtwc_sh SH071987 -12.7000 99.4000 40 0 -12.6325 99.4450 2 42 -12.7000 99.4000 TC 40 1 151
1987009S08095 1987 4 SI WA NOT_NAMED 1987-01-12 21:00:00 TS -12.6964 99.4506 main 909 909 P_________P_P_ SH071987 -12.7125 99.4400 40 0 -12.6641 99.4719 2 41 -12.7125 99.4400 TC 40 1 107
1987009S08095 1987 4 SI WA NOT_NAMED 1987-01-13 00:00:00 TS -12.7000 99.5000 main 909 O_________O_O_ jtwc_sh SH071987 -12.7000 99.5000 40 0 -12.7000 99.5000 2 40 -12.7000 99.5000 TC 40 1 95

IBTrACS Databaseについて

本データベースは、米国NOAAが公開する1842年以降の世界の熱帯低気圧のベストトラックデータアーカイブInternational Best Track Archive for Climate Stewardship (IBTrACS)を、ウェブで閲覧しやすい形式に変換したものです。

最終更新日:2021-11-26